Clever, Missouri
Current Conditions -  °F | °C
As of 5:52 AM on Friday 24 Oct 2014 (Local Time) from KSGF Reporting Station
Clear Clear  
Wind Chill: 49°   Ceiling: Unl
Heat Index: 49°   Visibility: 8mi
Dew Point: 47°   Wind: 3mph
Humidity: 93%   Direction: 180°S
Pressure: 30.11"   Gusts: NA
Location:  37.03°N, 93.47°W
Report Text: KSGF 241052Z 18003KT 8SM CLR 09/08 A3011 RMK AO2 SLP194 T00940083
Loading
Personal Weather Stations






























Interactive Weather Map
Tropical Storm Tracking
New forecast layout! Learn more

10-Day Weather Forecast

Advertisements
Track Severe Weather on mobile